createdAt,value
2022-10-15T00:01:51.144Z,71.85
2022-10-15T00:04:21.332Z,72.68
2022-10-15T00:06:49.999Z,69.10
2022-10-15T00:09:18.846Z,70.80
2022-10-15T00:11:47.871Z,73.60
2022-10-15T00:14:16.586Z,67.45
2022-10-15T00:16:45.329Z,71.93
2022-10-15T00:19:14.447Z,63.33
2022-10-15T00:21:44.710Z,68.25
2022-10-15T00:24:13.837Z,69.18
2022-10-15T00:26:42.696Z,60.80
2022-10-15T00:29:14.795Z,70.85
2022-10-15T00:31:43.383Z,65.85
2022-10-15T00:34:12.268Z,69.72
2022-10-15T00:36:40.945Z,67.18
2022-10-15T00:39:12.261Z,64.57
2022-10-15T00:41:43.903Z,69.18
2022-10-15T00:44:49.243Z,63.67
2022-10-15T00:47:20.465Z,72.90
2022-10-15T00:49:54.503Z,70.60
2022-10-15T00:52:25.857Z,66.93
2022-10-15T00:54:58.836Z,66.90
2022-10-15T00:57:27.737Z,66.07
2022-10-15T00:59:59.902Z,65.10
2022-10-15T01:02:28.833Z,68.18
2022-10-15T01:04:57.686Z,69.13
2022-10-15T01:07:26.209Z,73.13
2022-10-15T01:09:56.790Z,73.07
2022-10-15T01:12:32.728Z,74.05
2022-10-15T01:15:06.329Z,73.57
2022-10-15T01:17:41.842Z,73.32
2022-10-15T01:20:49.339Z,71.88
2022-10-15T01:24:05.997Z,72.68
2022-10-15T01:27:00.269Z,77.53
2022-10-15T01:29:47.164Z,76.10
2022-10-15T01:32:21.469Z,75.65
2022-10-15T01:34:55.113Z,73.45
2022-10-15T01:37:28.678Z,73.63
2022-10-15T01:40:03.452Z,72.72
2022-10-15T01:42:42.525Z,72.88
2022-10-15T01:45:14.443Z,65.40
2022-10-15T01:47:58.297Z,77.32
2022-10-15T01:50:28.893Z,73.35
2022-10-15T01:52:58.022Z,74.63
2022-10-15T01:55:27.697Z,78.35
2022-10-15T01:57:59.573Z,79.00
2022-10-15T02:00:28.455Z,76.43
2022-10-15T02:03:02.656Z,76.57
2022-10-15T02:05:35.998Z,76.93
2022-10-15T02:08:35.272Z,75.70
2022-10-15T02:11:06.750Z,71.00
2022-10-15T02:13:43.706Z,62.72
2022-10-15T02:16:14.320Z,70.88
2022-10-15T02:21:19.064Z,73.43
2022-10-15T02:23:51.932Z,68.07
2022-10-15T02:26:21.702Z,76.78
2022-10-15T02:28:54.114Z,62.67
2022-10-15T02:31:24.807Z,66.25
2022-10-15T02:33:58.943Z,73.68
2022-10-15T02:36:27.887Z,75.30
2022-10-15T02:38:58.343Z,74.18
2022-10-15T02:41:29.220Z,61.17
2022-10-15T02:43:58.335Z,75.57
2022-10-15T02:46:27.019Z,74.15
2022-10-15T02:48:58.521Z,76.57
2022-10-15T02:51:27.238Z,74.65
2022-10-15T02:53:56.900Z,71.97
2022-10-15T02:56:26.540Z,70.82
2022-10-15T02:58:55.574Z,73.25
2022-10-15T03:01:24.709Z,71.53
2022-10-15T03:03:53.599Z,65.28
2022-10-15T03:06:24.034Z,68.05
2022-10-15T03:08:53.314Z,71.13
2022-10-15T03:11:23.841Z,72.38
2022-10-15T03:13:53.529Z,74.50
2022-10-15T03:16:23.131Z,72.90
2022-10-15T03:18:52.125Z,75.47
2022-10-15T03:21:21.396Z,73.25
2022-10-15T03:23:51.491Z,74.07
2022-10-15T03:26:24.525Z,75.68
2022-10-15T03:28:52.994Z,66.18
2022-10-15T03:31:34.564Z,74.88
2022-10-15T03:34:05.227Z,76.13
2022-10-15T03:36:34.214Z,45.83
2022-10-15T03:39:08.473Z,64.07
2022-10-15T03:41:38.126Z,52.53
2022-10-15T03:44:09.152Z,74.70
2022-10-15T03:46:42.241Z,73.35
2022-10-15T03:49:11.273Z,68.85
2022-10-15T03:51:40.180Z,61.72
2022-10-15T03:54:14.647Z,67.03
2022-10-15T03:56:50.012Z,72.65
2022-10-15T03:59:31.053Z,70.20
2022-10-15T04:02:03.101Z,71.15
2022-10-15T04:04:33.313Z,70.88
2022-10-15T04:07:03.566Z,61.15
2022-10-15T04:09:35.657Z,59.80
2022-10-15T04:12:23.543Z,70.82
2022-10-15T04:14:52.989Z,65.68
2022-10-15T04:17:21.871Z,61.90
2022-10-15T04:19:51.474Z,64.20
2022-10-15T04:22:21.825Z,50.63
2022-10-15T04:25:00.288Z,63.72
2022-10-15T04:27:30.398Z,64.70
2022-10-15T04:30:11.439Z,64.15
2022-10-15T04:32:45.221Z,58.03
2022-10-15T04:35:14.957Z,65.00
2022-10-15T04:38:00.208Z,66.20
2022-10-15T04:40:36.150Z,57.50
2022-10-15T04:43:05.252Z,66.57
2022-10-15T04:45:34.542Z,64.28
2022-10-15T04:48:03.568Z,64.10
2022-10-15T04:50:32.640Z,62.30
2022-10-15T04:53:19.750Z,61.72
2022-10-15T04:55:53.869Z,61.72
2022-10-15T04:58:22.811Z,55.28
2022-10-15T05:00:51.689Z,56.35
2022-10-15T05:03:38.500Z,61.70
2022-10-15T05:06:11.819Z,61.63
2022-10-15T05:08:43.570Z,61.88
2022-10-15T05:11:23.849Z,59.22
2022-10-15T05:13:52.914Z,54.40
2022-10-15T05:16:23.281Z,61.20
2022-10-15T05:18:54.252Z,56.65
2022-10-15T05:21:23.795Z,53.95
2022-10-15T05:23:56.564Z,58.85
2022-10-15T05:26:46.739Z,60.15
2022-10-15T05:29:16.894Z,56.80
2022-10-15T05:31:46.119Z,50.22
2022-10-15T05:34:22.247Z,55.45
2022-10-15T05:37:01.913Z,49.08
2022-10-15T05:39:30.761Z,51.53
2022-10-15T05:42:02.487Z,55.72
2022-10-15T05:44:39.315Z,45.03
2022-10-15T05:47:11.989Z,54.17
2022-10-15T05:49:42.305Z,55.55
2022-10-15T05:52:17.063Z,53.40
2022-10-15T05:55:06.782Z,50.17
2022-10-15T05:57:36.942Z,53.25
2022-10-15T06:00:08.376Z,50.78
2022-10-15T06:02:42.726Z,45.13
2022-10-15T06:05:13.291Z,52.22
2022-10-15T06:07:41.704Z,50.53
2022-10-15T06:10:10.921Z,52.05
2022-10-15T06:12:41.097Z,47.65
2022-10-15T06:15:10.828Z,46.80
2022-10-15T06:17:39.621Z,48.58
2022-10-15T06:20:09.001Z,40.78
2022-10-15T06:25:11.403Z,37.83
2022-10-15T06:27:41.796Z,37.60
2022-10-15T06:30:11.403Z,32.78
2022-10-15T06:32:40.069Z,37.40
2022-10-15T06:35:09.394Z,29.00
2022-10-15T06:37:37.795Z,38.08
2022-10-15T06:40:07.513Z,41.70
2022-10-15T06:42:44.177Z,34.38
2022-10-15T06:45:15.749Z,34.67
2022-10-15T06:47:46.975Z,36.58
2022-10-15T06:50:15.722Z,37.00
2022-10-15T06:52:44.629Z,34.03
2022-10-15T06:55:13.352Z,38.92
2022-10-15T06:57:43.662Z,30.02
2022-10-15T07:00:15.943Z,35.00
2022-10-15T07:02:44.670Z,33.65
2022-10-15T07:05:13.291Z,29.08
2022-10-15T07:07:41.897Z,34.88
2022-10-15T07:10:11.260Z,35.20
2022-10-15T07:12:44.406Z,28.80
2022-10-15T07:15:13.357Z,34.00
2022-10-15T07:17:48.314Z,32.22
2022-10-15T07:20:21.706Z,31.02
2022-10-15T07:22:53.541Z,32.05
2022-10-15T07:25:22.272Z,26.30
2022-10-15T07:27:52.548Z,32.58
2022-10-15T07:32:51.406Z,29.95
2022-10-15T07:35:20.297Z,31.77
2022-10-15T07:37:50.565Z,35.50
2022-10-15T07:40:19.762Z,30.55
2022-10-15T07:42:55.755Z,33.95
2022-10-15T07:45:26.750Z,25.88
2022-10-15T07:47:55.709Z,34.13
2022-10-15T07:50:24.839Z,32.90
2022-10-15T07:52:57.709Z,18.25
2022-10-15T07:55:26.562Z,28.63
2022-10-15T07:57:59.414Z,26.35
2022-10-15T08:00:28.296Z,28.83
2022-10-15T08:02:57.353Z,28.35
2022-10-15T08:05:26.182Z,26.80
2022-10-15T08:07:54.633Z,28.52
2022-10-15T08:10:23.555Z,27.75
2022-10-15T08:12:53.025Z,28.17
2022-10-15T08:15:23.145Z,25.60
2022-10-15T08:17:51.942Z,25.42
2022-10-15T08:20:21.848Z,24.02
2022-10-15T08:22:50.333Z,26.15
2022-10-15T08:25:19.121Z,21.02
2022-10-15T08:27:47.895Z,25.13
2022-10-15T08:30:16.658Z,30.30
2022-10-15T08:32:47.165Z,22.70
2022-10-15T08:37:45.203Z,24.77
2022-10-15T08:40:15.186Z,26.92
2022-10-15T08:42:46.635Z,22.67
2022-10-15T08:45:18.981Z,29.63
2022-10-15T08:47:52.883Z,28.23
2022-10-15T08:50:28.544Z,29.33
2022-10-15T08:52:57.774Z,22.15
2022-10-15T08:55:30.304Z,24.80
2022-10-15T08:58:02.321Z,25.73
2022-10-15T09:00:37.319Z,26.92
2022-10-15T09:03:12.915Z,20.02
2022-10-15T09:05:46.814Z,25.25
2022-10-15T09:08:22.941Z,27.83
2022-10-15T09:10:53.807Z,28.85
2022-10-15T09:13:27.502Z,26.95
2022-10-15T09:16:00.386Z,26.75
2022-10-15T09:18:33.828Z,24.75
2022-10-15T09:21:03.746Z,24.67
2022-10-15T09:23:34.320Z,26.77
2022-10-15T09:26:06.741Z,27.20
2022-10-15T09:28:46.421Z,28.17
2022-10-15T09:31:17.058Z,29.02
2022-10-15T09:33:51.943Z,27.67
2022-10-15T09:36:37.841Z,26.38
2022-10-15T09:39:18.545Z,27.50
2022-10-15T09:41:54.818Z,22.65
2022-10-15T09:44:24.723Z,16.40
2022-10-15T09:46:53.193Z,22.83
2022-10-15T09:49:25.816Z,28.02
2022-10-15T09:52:05.969Z,26.30
2022-10-15T09:54:43.183Z,21.70
2022-10-15T09:57:13.675Z,20.85
2022-10-15T09:59:54.729Z,22.85
2022-10-15T10:02:24.709Z,25.65
2022-10-15T10:04:55.519Z,24.83
2022-10-15T10:07:32.468Z,22.70
2022-10-15T10:10:03.880Z,18.98
2022-10-15T10:12:37.644Z,19.45
2022-10-15T10:15:10.006Z,18.48
2022-10-15T10:17:38.988Z,22.10
2022-10-15T10:20:18.678Z,18.90
2022-10-15T10:22:51.197Z,14.88
2022-10-15T10:25:32.274Z,21.25
2022-10-15T10:30:34.955Z,14.93
2022-10-15T10:33:04.041Z,20.40
2022-10-15T10:35:45.411Z,16.90
2022-10-15T10:38:22.160Z,19.55
2022-10-15T10:40:55.446Z,18.92
2022-10-15T10:43:27.791Z,16.85
2022-10-15T10:46:00.333Z,19.83
2022-10-15T10:48:30.703Z,19.45
2022-10-15T10:51:14.122Z,18.77
2022-10-15T10:53:52.044Z,19.73
2022-10-15T10:56:24.508Z,18.42
2022-10-15T10:59:02.107Z,18.52
2022-10-15T11:01:31.291Z,15.30
2022-10-15T11:04:02.589Z,18.87
2022-10-15T11:06:46.767Z,17.23
2022-10-15T11:09:37.776Z,18.75
2022-10-15T11:12:15.982Z,17.23
2022-10-15T11:14:49.559Z,14.68
2022-10-15T11:17:24.552Z,16.92
2022-10-15T11:22:57.571Z,16.55
2022-10-15T11:25:34.343Z,15.35
2022-10-15T11:28:17.681Z,17.42
2022-10-15T11:30:51.795Z,16.17
2022-10-15T11:33:32.921Z,12.57
2022-10-15T11:36:18.458Z,16.17
2022-10-15T11:38:56.303Z,17.60
2022-10-15T11:41:33.731Z,18.30
2022-10-15T11:44:15.558Z,18.35
2022-10-15T11:46:48.866Z,17.42
2022-10-15T11:49:28.193Z,18.13
2022-10-15T11:52:09.480Z,15.83
2022-10-15T11:54:41.004Z,15.02
2022-10-15T11:57:10.542Z,17.63
2022-10-15T11:59:45.168Z,15.37
2022-10-15T12:02:17.048Z,15.93
2022-10-15T12:04:47.959Z,15.93
2022-10-15T12:07:20.373Z,18.67
2022-10-15T12:09:53.223Z,10.40
2022-10-15T12:12:29.970Z,19.10
2022-10-15T12:15:09.571Z,17.48
2022-10-15T12:17:43.829Z,17.63
2022-10-15T12:20:15.951Z,14.02
2022-10-15T12:22:59.186Z,13.23
2022-10-15T12:25:45.080Z,11.98
2022-10-15T12:28:22.060Z,16.70
2022-10-15T12:31:01.674Z,14.02
2022-10-15T12:33:45.636Z,13.03
2022-10-15T12:36:28.124Z,15.02
2022-10-15T12:39:00.818Z,16.98
2022-10-15T12:41:48.798Z,14.82
2022-10-15T12:44:21.940Z,12.50
2022-10-15T12:46:50.982Z,16.60
2022-10-15T12:49:47.360Z,15.23
2022-10-15T12:52:54.207Z,17.00
2022-10-15T12:55:31.846Z,15.15
2022-10-15T12:58:08.134Z,16.65
2022-10-15T13:00:42.710Z,12.65
2022-10-15T13:03:18.408Z,13.45
2022-10-15T13:05:50.220Z,17.63
2022-10-15T13:08:31.622Z,17.75
2022-10-15T13:11:02.075Z,16.85
2022-10-15T13:13:33.982Z,17.25
2022-10-15T13:16:04.419Z,15.38
2022-10-15T13:18:33.450Z,18.15
2022-10-15T13:23:37.161Z,16.52
2022-10-15T13:26:19.433Z,18.07
2022-10-15T13:28:49.671Z,14.35
2022-10-15T13:31:27.383Z,15.82
2022-10-15T13:34:01.412Z,17.95
2022-10-15T13:36:33.576Z,14.13
2022-10-15T13:39:05.660Z,18.17
2022-10-15T13:41:36.480Z,16.08
2022-10-15T13:44:07.156Z,17.50
2022-10-15T13:46:39.754Z,17.17
2022-10-15T13:49:13.749Z,17.95
2022-10-15T13:51:44.047Z,10.93
2022-10-15T13:54:17.071Z,13.38
2022-10-15T13:56:50.546Z,15.82
2022-10-15T13:59:21.782Z,16.38
2022-10-15T14:01:53.147Z,15.40
2022-10-15T14:04:23.804Z,14.95
2022-10-15T14:07:03.255Z,17.52
2022-10-15T14:09:34.738Z,18.13
2022-10-15T14:12:03.823Z,18.13
2022-10-15T14:14:35.638Z,17.60
2022-10-15T14:17:06.302Z,18.05
2022-10-15T14:22:03.987Z,16.80
2022-10-15T14:24:34.972Z,14.95
2022-10-15T14:27:06.087Z,15.63
2022-10-15T14:29:41.587Z,15.10
2022-10-15T14:32:22.499Z,17.58
2022-10-15T14:34:52.109Z,18.50
2022-10-15T14:37:43.884Z,17.92
2022-10-15T14:40:22.142Z,17.08
2022-10-15T14:43:03.745Z,16.85
2022-10-15T14:45:42.922Z,18.98
2022-10-15T14:48:17.181Z,19.60
2022-10-15T14:50:46.285Z,17.23
2022-10-15T14:53:20.534Z,17.73
2022-10-15T14:55:52.468Z,19.30
2022-10-15T14:58:23.196Z,18.92
2022-10-15T15:00:59.204Z,20.48
2022-10-15T15:03:31.561Z,18.90
2022-10-15T15:06:00.408Z,19.15
2022-10-15T15:08:29.300Z,16.38
2022-10-15T15:13:30.047Z,20.13
2022-10-15T15:16:00.202Z,17.98
2022-10-15T15:18:29.164Z,17.02
2022-10-15T15:21:00.984Z,19.35
2022-10-15T15:23:30.307Z,18.75
2022-10-15T15:25:59.113Z,20.13
2022-10-15T15:28:29.636Z,20.23
2022-10-15T15:31:01.574Z,21.02
2022-10-15T15:33:30.758Z,20.38
2022-10-15T15:36:03.169Z,21.48
2022-10-15T15:38:32.176Z,20.63
2022-10-15T15:41:03.543Z,20.33
2022-10-15T15:43:32.232Z,22.42
2022-10-15T15:46:02.481Z,22.65
2022-10-15T15:51:02.673Z,19.48
2022-10-15T15:53:32.048Z,21.38
2022-10-15T15:56:01.317Z,19.58
2022-10-15T15:58:29.808Z,19.33
2022-10-15T16:00:58.537Z,20.70
2022-10-15T16:03:28.827Z,23.98
2022-10-15T16:06:01.153Z,20.25
2022-10-15T16:08:30.211Z,21.80
2022-10-15T16:11:02.450Z,22.23
2022-10-15T16:13:30.864Z,20.73
2022-10-15T16:15:59.706Z,23.35
2022-10-15T16:18:30.137Z,19.30
2022-10-15T16:20:59.177Z,25.17
2022-10-15T16:23:27.878Z,17.88
2022-10-15T16:25:57.594Z,23.88
2022-10-15T16:28:26.322Z,24.48
2022-10-15T16:30:55.078Z,17.48
2022-10-15T16:33:23.890Z,22.88
2022-10-15T16:35:54.612Z,22.67
2022-10-15T16:38:23.386Z,25.00
2022-10-15T16:40:51.730Z,23.00
2022-10-15T16:43:20.459Z,22.80
2022-10-15T16:45:56.391Z,22.27
2022-10-15T16:48:26.223Z,23.08
2022-10-15T16:51:02.957Z,21.08
2022-10-15T16:53:32.109Z,21.10
2022-10-15T16:56:02.390Z,24.15
2022-10-15T16:58:31.587Z,23.65
2022-10-15T17:01:01.392Z,24.98
2022-10-15T17:03:30.521Z,24.20
2022-10-15T17:05:59.880Z,25.25
2022-10-15T17:08:35.849Z,27.23
2022-10-15T17:11:10.808Z,27.33
2022-10-15T17:13:39.303Z,28.23
2022-10-15T17:16:12.801Z,29.25
2022-10-15T17:18:42.540Z,29.92
2022-10-15T17:21:12.575Z,30.73
2022-10-15T17:23:44.155Z,29.45
2022-10-15T17:26:15.218Z,31.70
2022-10-15T17:28:45.555Z,29.48
2022-10-15T17:31:16.049Z,28.67
2022-10-15T17:33:45.834Z,26.02
2022-10-15T17:36:16.385Z,30.27
2022-10-15T17:38:47.132Z,25.17
2022-10-15T17:41:18.000Z,28.65
2022-10-15T17:43:46.652Z,29.90
2022-10-15T17:46:17.167Z,31.83
2022-10-15T17:48:47.275Z,31.63
2022-10-15T17:51:18.052Z,29.33
2022-10-15T17:53:50.778Z,28.45
2022-10-15T17:56:21.526Z,25.90
2022-10-15T17:58:51.074Z,30.60
2022-10-15T18:01:28.142Z,29.77
2022-10-15T18:04:02.338Z,25.90
2022-10-15T18:06:31.071Z,25.45
2022-10-15T18:09:03.680Z,27.15
2022-10-15T18:11:34.271Z,26.33
2022-10-15T18:14:03.550Z,26.23
2022-10-15T18:16:32.350Z,28.48
2022-10-15T18:19:01.121Z,30.88
2022-10-15T18:21:29.938Z,33.03
2022-10-15T18:24:01.091Z,31.45
2022-10-15T18:26:32.379Z,30.13
2022-10-15T18:29:02.538Z,25.65
2022-10-15T18:31:31.492Z,30.45
2022-10-15T18:34:02.641Z,31.02
2022-10-15T18:36:33.013Z,31.77
2022-10-15T18:41:33.908Z,32.80
2022-10-15T18:44:04.700Z,29.27
2022-10-15T18:46:34.835Z,24.30
2022-10-15T18:49:03.811Z,27.73
2022-10-15T18:51:32.911Z,31.20
2022-10-15T18:54:03.552Z,28.52
2022-10-15T18:56:32.271Z,28.02
2022-10-15T18:59:01.308Z,31.98
2022-10-15T19:01:32.801Z,31.23
2022-10-15T19:04:03.207Z,33.08
2022-10-15T19:06:35.281Z,32.47
2022-10-15T19:09:07.392Z,34.03
2022-10-15T19:11:36.637Z,23.30
2022-10-15T19:14:05.953Z,34.47
2022-10-15T19:16:36.637Z,33.88
2022-10-15T19:19:12.650Z,31.88
2022-10-15T19:21:41.352Z,34.13
2022-10-15T19:24:11.549Z,31.17
2022-10-15T19:26:41.837Z,32.15
2022-10-15T19:29:10.577Z,30.38
2022-10-15T19:31:42.090Z,31.95
2022-10-15T19:34:11.233Z,32.53
2022-10-15T19:36:41.727Z,35.45
2022-10-15T19:41:46.893Z,30.52
2022-10-15T19:44:18.129Z,33.72
2022-10-15T19:46:47.537Z,31.75
2022-10-15T19:49:16.804Z,33.08
2022-10-15T19:51:48.038Z,32.65
2022-10-15T19:54:18.642Z,32.50
2022-10-15T19:56:47.504Z,33.42
2022-10-15T19:59:17.032Z,33.83
2022-10-15T20:01:45.541Z,32.22
2022-10-15T20:04:14.277Z,33.22
2022-10-15T20:06:43.754Z,32.20
2022-10-15T20:11:45.058Z,31.08
2022-10-15T20:14:13.724Z,31.73
2022-10-15T20:16:43.913Z,34.10
2022-10-15T20:19:13.149Z,33.67
2022-10-15T20:21:41.998Z,32.70
2022-10-15T20:24:10.644Z,29.08
2022-10-15T20:26:39.333Z,32.65
2022-10-15T20:29:09.946Z,32.67
2022-10-15T20:31:38.341Z,32.80
2022-10-15T20:34:07.096Z,29.35
2022-10-15T20:36:35.975Z,31.02
2022-10-15T20:39:04.898Z,31.55
2022-10-15T20:41:33.567Z,30.45
2022-10-15T20:44:02.434Z,30.00
2022-10-15T20:46:34.966Z,28.65
2022-10-15T20:49:08.694Z,28.55
2022-10-15T20:51:38.676Z,25.38
2022-10-15T20:54:07.812Z,28.48
2022-10-15T20:56:36.776Z,28.40
2022-10-15T20:59:06.016Z,25.17
2022-10-15T21:01:36.251Z,25.33
2022-10-15T21:04:06.018Z,25.27
2022-10-15T21:06:35.185Z,25.33
2022-10-15T21:09:04.112Z,24.63
2022-10-15T21:11:32.869Z,24.17
2022-10-15T21:14:01.711Z,24.25
2022-10-15T21:19:00.266Z,21.60
2022-10-15T21:21:29.355Z,23.52
2022-10-15T21:23:59.333Z,22.70
2022-10-15T21:26:28.241Z,23.20
2022-10-15T21:28:56.824Z,22.50
2022-10-15T21:31:28.818Z,18.95
2022-10-15T21:33:57.799Z,24.75
2022-10-15T21:36:28.885Z,21.45
2022-10-15T21:39:00.607Z,23.27
2022-10-15T21:41:30.798Z,23.98
2022-10-15T21:43:59.865Z,23.15
2022-10-15T21:46:30.589Z,19.40
2022-10-15T21:48:59.772Z,22.77
2022-10-15T21:51:31.330Z,24.42
2022-10-15T21:54:02.560Z,21.77
2022-10-15T21:56:31.720Z,21.95
2022-10-15T21:59:01.012Z,21.73
2022-10-15T22:01:31.722Z,20.42
2022-10-15T22:04:02.642Z,21.55
2022-10-15T22:06:36.309Z,22.52
2022-10-15T22:09:08.001Z,21.35
2022-10-15T22:11:38.179Z,21.67
2022-10-15T22:14:09.376Z,22.65
2022-10-15T22:16:39.892Z,23.55
2022-10-15T22:19:09.856Z,22.33
2022-10-15T22:21:40.136Z,19.80
2022-10-15T22:24:12.355Z,20.77
2022-10-15T22:26:42.721Z,20.98
2022-10-15T22:29:18.540Z,19.70
2022-10-15T22:31:46.919Z,16.33
2022-10-15T22:34:16.463Z,17.85
2022-10-15T22:36:46.762Z,15.77
2022-10-15T22:39:17.233Z,19.05
2022-10-15T22:44:16.738Z,18.05
2022-10-15T22:49:19.746Z,18.95
2022-10-15T22:51:50.768Z,19.83
2022-10-15T22:54:20.944Z,20.05
2022-10-15T22:56:50.273Z,18.45
2022-10-15T22:59:19.527Z,19.05
2022-10-15T23:01:48.093Z,22.33
2022-10-15T23:04:17.257Z,21.52
2022-10-15T23:06:46.995Z,20.40
2022-10-15T23:09:19.978Z,21.95
2022-10-15T23:11:48.826Z,20.08
2022-10-15T23:14:18.615Z,16.10
2022-10-15T23:16:48.352Z,17.90
2022-10-15T23:19:19.231Z,17.42
2022-10-15T23:21:49.867Z,16.20
2022-10-15T23:24:21.241Z,16.00
2022-10-15T23:26:50.293Z,16.73
2022-10-15T23:29:20.833Z,15.77
2022-10-15T23:34:22.553Z,14.25
2022-10-15T23:36:51.660Z,13.73
2022-10-15T23:39:23.570Z,12.52
2022-10-15T23:41:52.501Z,12.93
2022-10-15T23:44:21.617Z,13.63
2022-10-15T23:46:50.077Z,13.15
2022-10-15T23:49:18.993Z,13.07
2022-10-15T23:51:47.717Z,11.70
2022-10-15T23:54:18.812Z,11.55
2022-10-15T23:56:48.987Z,10.35
2022-10-15T23:59:18.448Z,9.88
